createdAt,value
2019-01-14T00:00:05.799Z,20.00
2019-01-14T00:01:05.956Z,20.00
2019-01-14T00:02:16.389Z,20.00
2019-01-14T00:03:05.765Z,20.00
2019-01-14T00:04:05.756Z,20.00
2019-01-14T00:05:05.748Z,20.00
2019-01-14T00:06:10.153Z,20.00
2019-01-14T00:07:05.774Z,20.00
2019-01-14T00:08:05.714Z,20.00
2019-01-14T00:09:05.700Z,20.00
2019-01-14T00:10:05.699Z,20.00
2019-01-14T00:11:05.680Z,20.00
2019-01-14T00:12:05.671Z,20.00
2019-01-14T00:13:05.697Z,20.00
2019-01-14T00:14:05.650Z,20.00
2019-01-14T00:15:05.644Z,20.00
2019-01-14T00:16:05.630Z,20.00
2019-01-14T00:17:05.616Z,20.00
2019-01-14T00:18:05.607Z,20.00
2019-01-14T00:19:05.640Z,20.00
2019-01-14T00:20:05.584Z,24.00
2019-01-14T00:21:05.578Z,20.00
2019-01-14T00:22:05.564Z,20.00
2019-01-14T00:23:05.553Z,20.00
2019-01-14T00:24:05.541Z,20.00
2019-01-14T00:25:05.549Z,24.00
2019-01-14T00:26:05.514Z,20.00
2019-01-14T00:27:05.514Z,16.00
2019-01-14T00:28:05.495Z,20.00
2019-01-14T00:29:05.484Z,16.00
2019-01-14T00:30:05.476Z,20.00
2019-01-14T00:31:05.479Z,20.00
2019-01-14T00:32:05.453Z,20.00
2019-01-14T00:33:15.766Z,20.00
2019-01-14T00:34:05.431Z,20.00
2019-01-14T00:35:05.420Z,24.00
2019-01-14T00:36:05.409Z,20.00
2019-01-14T00:37:05.436Z,20.00
2019-01-14T00:38:05.393Z,20.00
2019-01-14T00:39:05.382Z,20.00
2019-01-14T00:40:05.365Z,20.00
2019-01-14T00:41:05.360Z,20.00
2019-01-14T00:42:05.351Z,20.00
2019-01-14T00:43:05.378Z,20.00
2019-01-14T00:44:05.330Z,20.00
2019-01-14T00:45:05.313Z,20.00
2019-01-14T00:46:05.311Z,20.00
2019-01-14T00:47:05.295Z,20.00
2019-01-14T00:48:05.280Z,20.00
2019-01-14T00:49:05.293Z,20.00
2019-01-14T00:50:05.262Z,20.00
2019-01-14T00:51:05.249Z,20.00
2019-01-14T00:52:05.247Z,20.00
2019-01-14T00:53:05.235Z,20.00
2019-01-14T00:54:05.223Z,20.00
2019-01-14T00:55:05.383Z,20.00
2019-01-14T00:56:05.199Z,20.00
2019-01-14T00:57:05.193Z,20.00
2019-01-14T00:58:05.188Z,20.00
2019-01-14T00:59:05.285Z,20.00
2019-01-14T01:00:05.160Z,20.00
2019-01-14T01:01:05.168Z,20.00
2019-01-14T01:02:05.136Z,20.00
2019-01-14T01:03:05.126Z,20.00
2019-01-14T01:04:15.963Z,20.00
2019-01-14T01:05:05.106Z,20.00
2019-01-14T01:06:05.096Z,20.00
2019-01-14T01:07:05.124Z,20.00
2019-01-14T01:08:05.068Z,20.00
2019-01-14T01:09:05.065Z,20.00
2019-01-14T01:10:05.049Z,20.00
2019-01-14T01:11:05.041Z,20.00
2019-01-14T01:12:05.026Z,20.00
2019-01-14T01:13:05.055Z,20.00
2019-01-14T01:14:05.011Z,20.00
2019-01-14T01:15:04.993Z,20.00
2019-01-14T01:16:04.996Z,20.00
2019-01-14T01:17:04.976Z,20.00
2019-01-14T01:18:04.975Z,20.00
2019-01-14T01:19:04.991Z,20.00
2019-01-14T01:20:04.945Z,20.00
2019-01-14T01:21:04.936Z,20.00
2019-01-14T01:22:04.926Z,20.00
2019-01-14T01:23:04.908Z,20.00
2019-01-14T01:24:04.901Z,20.00
2019-01-14T01:25:04.930Z,20.00
2019-01-14T01:26:04.876Z,20.00
2019-01-14T01:27:04.869Z,20.00
2019-01-14T01:28:04.855Z,20.00
2019-01-14T01:29:04.847Z,20.00
2019-01-14T01:30:04.841Z,20.00
2019-01-14T01:31:04.864Z,20.00
2019-01-14T01:32:04.870Z,20.00
2019-01-14T01:33:04.808Z,20.00
2019-01-14T01:34:04.798Z,20.00
2019-01-14T01:35:15.228Z,20.00
2019-01-14T01:36:04.772Z,20.00
2019-01-14T01:37:04.797Z,20.00
2019-01-14T01:38:04.753Z,20.00
2019-01-14T01:39:04.739Z,20.00
2019-01-14T01:40:04.741Z,20.00
2019-01-14T01:41:04.724Z,20.00
2019-01-14T01:42:04.716Z,20.00
2019-01-14T01:43:04.878Z,20.00
2019-01-14T01:44:04.695Z,20.00
2019-01-14T01:45:04.679Z,20.00
2019-01-14T01:46:04.666Z,20.00
2019-01-14T01:47:04.652Z,16.00
2019-01-14T01:48:04.655Z,16.00
2019-01-14T01:49:04.678Z,16.00
2019-01-14T01:50:04.621Z,16.00
2019-01-14T01:51:04.620Z,16.00
2019-01-14T01:52:04.607Z,16.00
2019-01-14T01:53:04.589Z,16.00
2019-01-14T01:54:04.589Z,16.00
2019-01-14T01:55:04.604Z,16.00
2019-01-14T01:56:04.564Z,16.00
2019-01-14T01:57:04.551Z,16.00
2019-01-14T01:58:04.542Z,16.00
2019-01-14T01:59:04.530Z,16.00
2019-01-14T02:00:04.515Z,16.00
2019-01-14T02:01:04.552Z,16.00
2019-01-14T02:02:04.494Z,16.00
2019-01-14T02:03:04.484Z,16.00
2019-01-14T02:04:04.483Z,16.00
2019-01-14T02:05:04.461Z,16.00
2019-01-14T02:06:14.717Z,16.00
2019-01-14T02:07:04.446Z,16.00
2019-01-14T02:08:04.433Z,16.00
2019-01-14T02:09:04.423Z,16.00
2019-01-14T02:10:04.410Z,16.00
2019-01-14T02:11:04.411Z,16.00
2019-01-14T02:12:04.411Z,16.00
2019-01-14T02:13:04.378Z,16.00
2019-01-14T02:14:04.374Z,16.00
2019-01-14T02:15:04.368Z,16.00
2019-01-14T02:16:04.363Z,16.00
2019-01-14T02:17:04.336Z,16.00
2019-01-14T02:18:04.367Z,16.00
2019-01-14T02:19:04.313Z,16.00
2019-01-14T02:20:04.305Z,16.00
2019-01-14T02:21:04.301Z,16.00
2019-01-14T02:22:04.292Z,16.00
2019-01-14T02:23:04.272Z,16.00
2019-01-14T02:24:04.277Z,16.00
2019-01-14T02:25:04.258Z,16.00
2019-01-14T02:26:04.243Z,16.00
2019-01-14T02:27:04.229Z,16.00
2019-01-14T02:28:04.226Z,16.00
2019-01-14T02:29:04.210Z,16.00
2019-01-14T02:30:04.241Z,16.00
2019-01-14T02:31:04.190Z,16.00
2019-01-14T02:32:04.181Z,16.00
2019-01-14T02:33:04.169Z,16.00
2019-01-14T02:34:04.160Z,16.00
2019-01-14T02:35:04.151Z,16.00
2019-01-14T02:36:04.174Z,16.00
2019-01-14T02:37:16.099Z,16.00
2019-01-14T02:38:04.112Z,16.00
2019-01-14T02:39:04.105Z,16.00
2019-01-14T02:40:04.092Z,16.00
2019-01-14T02:41:04.088Z,16.00
2019-01-14T02:42:04.108Z,16.00
2019-01-14T02:43:04.067Z,16.00
2019-01-14T02:44:04.053Z,16.00
2019-01-14T02:45:04.044Z,16.00
2019-01-14T02:46:04.026Z,16.00
2019-01-14T02:47:04.017Z,16.00
2019-01-14T02:48:04.050Z,16.00
2019-01-14T02:49:03.995Z,16.00
2019-01-14T02:50:03.989Z,16.00
2019-01-14T02:51:03.975Z,12.00
2019-01-14T02:52:03.972Z,16.00
2019-01-14T02:53:03.954Z,16.00
2019-01-14T02:54:04.120Z,16.00
2019-01-14T02:55:03.937Z,16.00
2019-01-14T02:56:03.920Z,16.00
2019-01-14T02:57:03.911Z,12.00
2019-01-14T02:58:03.905Z,16.00
2019-01-14T02:59:03.887Z,16.00
2019-01-14T03:00:03.917Z,16.00
2019-01-14T03:01:03.868Z,16.00
2019-01-14T03:02:03.866Z,16.00
2019-01-14T03:03:03.850Z,16.00
2019-01-14T03:04:03.836Z,16.00
2019-01-14T03:05:03.823Z,16.00
2019-01-14T03:06:03.861Z,16.00
2019-01-14T03:07:03.811Z,16.00
2019-01-14T03:08:15.358Z,16.00
2019-01-14T03:09:03.785Z,16.00
2019-01-14T03:10:03.784Z,16.00
2019-01-14T03:11:03.760Z,16.00
2019-01-14T03:12:03.798Z,16.00
2019-01-14T03:13:03.741Z,12.00
2019-01-14T03:14:03.726Z,16.00
2019-01-14T03:15:03.731Z,16.00
2019-01-14T03:16:03.712Z,16.00
2019-01-14T03:17:03.702Z,16.00
2019-01-14T03:18:03.731Z,16.00
2019-01-14T03:19:03.674Z,16.00
2019-01-14T03:20:03.667Z,16.00
2019-01-14T03:21:03.656Z,16.00
2019-01-14T03:22:03.646Z,16.00
2019-01-14T03:23:03.634Z,16.00
2019-01-14T03:24:03.642Z,16.00
2019-01-14T03:25:03.617Z,16.00
2019-01-14T03:26:03.599Z,16.00
2019-01-14T03:27:03.597Z,16.00
2019-01-14T03:28:03.577Z,16.00
2019-01-14T03:29:03.571Z,16.00
2019-01-14T03:30:03.644Z,12.00
2019-01-14T03:31:03.570Z,16.00
2019-01-14T03:32:03.541Z,16.00
2019-01-14T03:33:03.533Z,12.00
2019-01-14T03:34:03.517Z,16.00
2019-01-14T03:35:03.504Z,16.00
2019-01-14T03:36:03.537Z,12.00
2019-01-14T03:37:05.638Z,16.00
2019-01-14T03:38:03.479Z,16.00
2019-01-14T03:39:13.708Z,12.00
2019-01-14T03:40:03.453Z,12.00
2019-01-14T03:41:03.439Z,12.00
2019-01-14T03:42:03.469Z,16.00
2019-01-14T03:43:03.423Z,16.00
2019-01-14T03:44:03.422Z,16.00
2019-01-14T03:45:03.405Z,16.00
2019-01-14T03:46:03.388Z,12.00
2019-01-14T03:47:03.390Z,16.00
2019-01-14T03:48:03.556Z,16.00
2019-01-14T03:49:03.357Z,12.00
2019-01-14T03:50:03.348Z,16.00
2019-01-14T03:51:03.342Z,16.00
2019-01-14T03:52:03.332Z,16.00
2019-01-14T03:53:03.325Z,16.00
2019-01-14T03:54:03.347Z,16.00
2019-01-14T03:55:03.294Z,16.00
2019-01-14T03:56:03.288Z,16.00
2019-01-14T03:57:03.271Z,16.00
2019-01-14T03:58:03.268Z,16.00
2019-01-14T03:59:03.258Z,16.00
2019-01-14T04:00:03.294Z,16.00
2019-01-14T04:01:03.246Z,16.00
2019-01-14T04:02:03.229Z,16.00
2019-01-14T04:03:03.215Z,12.00
2019-01-14T04:04:03.205Z,16.00
2019-01-14T04:05:03.195Z,12.00
2019-01-14T04:06:03.354Z,16.00
2019-01-14T04:07:03.167Z,16.00
2019-01-14T04:08:03.161Z,16.00
2019-01-14T04:09:03.151Z,16.00
2019-01-14T04:10:15.101Z,16.00
2019-01-14T04:11:03.123Z,16.00
2019-01-14T04:12:03.273Z,16.00
2019-01-14T04:13:03.108Z,16.00
2019-01-14T04:14:03.095Z,12.00
2019-01-14T04:15:03.088Z,12.00
2019-01-14T04:16:03.069Z,12.00
2019-01-14T04:17:03.065Z,12.00
2019-01-14T04:18:03.091Z,16.00
2019-01-14T04:19:03.043Z,16.00
2019-01-14T04:20:03.032Z,16.00
2019-01-14T04:21:03.022Z,16.00
2019-01-14T04:22:03.011Z,16.00
2019-01-14T04:23:03.008Z,16.00
2019-01-14T04:24:03.005Z,16.00
2019-01-14T04:25:02.981Z,16.00
2019-01-14T04:26:02.968Z,16.00
2019-01-14T04:27:02.956Z,16.00
2019-01-14T04:28:02.945Z,16.00
2019-01-14T04:29:02.934Z,16.00
2019-01-14T04:30:03.010Z,16.00
2019-01-14T04:31:02.909Z,16.00
2019-01-14T04:32:02.906Z,16.00
2019-01-14T04:33:02.890Z,16.00
2019-01-14T04:34:02.885Z,16.00
2019-01-14T04:35:02.868Z,12.00
2019-01-14T04:36:02.933Z,16.00
2019-01-14T04:37:02.856Z,16.00
2019-01-14T04:38:02.841Z,16.00
2019-01-14T04:39:02.828Z,16.00
2019-01-14T04:40:02.814Z,16.00
2019-01-14T04:41:12.787Z,16.00
2019-01-14T04:42:02.795Z,16.00
2019-01-14T04:43:02.790Z,16.00
2019-01-14T04:44:02.775Z,16.00
2019-01-14T04:45:02.798Z,12.00
2019-01-14T04:46:02.759Z,16.00
2019-01-14T04:47:02.782Z,16.00
2019-01-14T04:48:02.736Z,16.00
2019-01-14T04:49:02.734Z,12.00
2019-01-14T04:50:02.710Z,12.00
2019-01-14T04:51:02.700Z,16.00
2019-01-14T04:52:02.693Z,16.00
2019-01-14T04:53:02.717Z,16.00
2019-01-14T04:54:02.682Z,16.00
2019-01-14T04:55:02.661Z,12.00
2019-01-14T04:56:02.647Z,16.00
2019-01-14T04:57:02.634Z,16.00
2019-01-14T04:58:02.634Z,16.00
2019-01-14T04:59:02.654Z,16.00
2019-01-14T05:00:02.605Z,16.00
2019-01-14T05:01:02.604Z,16.00
2019-01-14T05:02:02.584Z,12.00
2019-01-14T05:03:02.588Z,16.00
2019-01-14T05:04:02.567Z,16.00
2019-01-14T05:05:02.598Z,16.00
2019-01-14T05:06:02.547Z,16.00
2019-01-14T05:07:02.531Z,16.00
2019-01-14T05:08:02.525Z,12.00
2019-01-14T05:09:02.530Z,16.00
2019-01-14T05:10:02.526Z,16.00
2019-01-14T05:11:02.530Z,16.00
2019-01-14T05:12:13.301Z,16.00
2019-01-14T05:13:02.472Z,16.00
2019-01-14T05:14:02.461Z,16.00
2019-01-14T05:15:02.450Z,16.00
2019-01-14T05:16:02.443Z,16.00
2019-01-14T05:17:02.447Z,16.00
2019-01-14T05:18:02.418Z,16.00
2019-01-14T05:19:02.424Z,16.00
2019-01-14T05:20:02.392Z,24.00
2019-01-14T05:21:02.395Z,16.00
2019-01-14T05:22:02.376Z,16.00
2019-01-14T05:23:02.590Z,16.00
2019-01-14T05:24:02.356Z,16.00
2019-01-14T05:25:02.347Z,16.00
2019-01-14T05:26:02.332Z,16.00
2019-01-14T05:27:02.316Z,16.00
2019-01-14T05:28:02.307Z,16.00
2019-01-14T05:29:02.335Z,16.00
2019-01-14T05:30:02.290Z,16.00
2019-01-14T05:31:02.280Z,16.00
2019-01-14T05:32:02.271Z,16.00
2019-01-14T05:33:02.261Z,16.00
2019-01-14T05:34:02.242Z,16.00
2019-01-14T05:35:02.297Z,16.00
2019-01-14T05:36:02.225Z,16.00
2019-01-14T05:37:02.211Z,16.00
2019-01-14T05:38:02.203Z,16.00
2019-01-14T05:39:02.202Z,16.00
2019-01-14T05:40:02.179Z,16.00
2019-01-14T05:41:02.211Z,16.00
2019-01-14T05:42:02.156Z,16.00
2019-01-14T05:43:13.834Z,16.00
2019-01-14T05:44:02.149Z,16.00
2019-01-14T05:45:02.177Z,16.00
2019-01-14T05:46:02.121Z,16.00
2019-01-14T05:47:02.148Z,16.00
2019-01-14T05:48:02.118Z,16.00
2019-01-14T05:49:02.111Z,16.00
2019-01-14T05:50:02.077Z,16.00
2019-01-14T05:51:02.065Z,16.00
2019-01-14T05:52:02.061Z,16.00
2019-01-14T05:53:02.076Z,16.00
2019-01-14T05:54:02.047Z,16.00
2019-01-14T05:55:02.018Z,16.00
2019-01-14T05:56:02.015Z,16.00
2019-01-14T05:57:02.014Z,16.00
2019-01-14T05:58:01.989Z,16.00
2019-01-14T05:59:02.163Z,16.00
2019-01-14T06:00:02.025Z,16.00
2019-01-14T06:01:01.995Z,16.00
2019-01-14T06:02:01.953Z,16.00
2019-01-14T06:03:01.935Z,16.00
2019-01-14T06:04:01.958Z,16.00
2019-01-14T06:05:01.964Z,16.00
2019-01-14T06:06:01.966Z,16.00
2019-01-14T06:07:01.898Z,16.00
2019-01-14T06:08:01.883Z,16.00
2019-01-14T06:09:01.871Z,20.00
2019-01-14T06:10:01.928Z,20.00
2019-01-14T06:11:02.034Z,20.00
2019-01-14T06:12:01.850Z,16.00
2019-01-14T06:13:01.878Z,16.00
2019-01-14T06:14:13.046Z,16.00
2019-01-14T06:15:01.812Z,20.00
2019-01-14T06:16:01.805Z,20.00
2019-01-14T06:17:01.974Z,20.00
2019-01-14T06:18:01.779Z,16.00
2019-01-14T06:19:01.780Z,20.00
2019-01-14T06:20:01.755Z,20.00
2019-01-14T06:21:01.747Z,16.00
2019-01-14T06:22:01.746Z,20.00
2019-01-14T06:23:01.749Z,24.00
2019-01-14T06:24:01.711Z,20.00
2019-01-14T06:25:01.703Z,20.00
2019-01-14T06:26:01.697Z,24.00
2019-01-14T06:27:01.689Z,24.00
2019-01-14T06:28:01.672Z,28.00
2019-01-14T06:29:01.697Z,28.00
2019-01-14T06:30:01.653Z,28.00
2019-01-14T06:31:01.636Z,32.00
2019-01-14T06:32:01.634Z,36.00
2019-01-14T06:33:01.616Z,36.00
2019-01-14T06:34:01.604Z,36.00
2019-01-14T06:35:01.699Z,40.00
2019-01-14T06:36:01.589Z,44.00
2019-01-14T06:37:01.574Z,48.00
2019-01-14T06:38:01.567Z,52.00
2019-01-14T06:39:01.589Z,52.00
2019-01-14T06:40:01.548Z,56.00
2019-01-14T06:41:01.579Z,60.00
2019-01-14T06:42:01.520Z,64.00
2019-01-14T06:43:01.508Z,68.00
2019-01-14T06:44:01.498Z,68.00
2019-01-14T06:45:12.062Z,76.00
2019-01-14T06:46:01.484Z,80.00
2019-01-14T06:47:01.523Z,88.00
2019-01-14T06:48:01.491Z,88.00
2019-01-14T06:49:01.459Z,92.00
2019-01-14T06:50:01.441Z,96.00
2019-01-14T06:51:01.440Z,104.00
2019-01-14T06:52:01.427Z,108.00
2019-01-14T06:53:01.479Z,116.00
2019-01-14T06:54:01.396Z,120.00
2019-01-14T06:55:01.382Z,128.00
2019-01-14T06:56:01.377Z,132.00
2019-01-14T06:57:01.363Z,136.00
2019-01-14T06:58:01.352Z,144.00
2019-01-14T06:59:01.361Z,152.00
2019-01-14T07:00:01.332Z,160.00
2019-01-14T07:01:01.322Z,168.00
2019-01-14T07:02:01.310Z,172.00
2019-01-14T07:03:01.301Z,180.00
2019-01-14T07:04:01.287Z,188.00
2019-01-14T07:05:01.298Z,196.00
2019-01-14T07:06:01.270Z,204.00
2019-01-14T07:07:01.264Z,208.00
2019-01-14T07:08:01.244Z,216.00
2019-01-14T07:09:01.233Z,220.00
2019-01-14T07:10:01.227Z,232.00
2019-01-14T07:11:01.258Z,244.00
2019-01-14T07:12:01.199Z,252.00
2019-01-14T07:13:01.211Z,260.00
2019-01-14T07:14:01.179Z,268.00
2019-01-14T07:15:01.172Z,276.00
2019-01-14T07:16:11.380Z,292.00
2019-01-14T07:17:01.152Z,308.00
2019-01-14T07:18:01.138Z,324.00
2019-01-14T07:19:01.131Z,336.00
2019-01-14T07:20:01.113Z,356.00
2019-01-14T07:21:01.111Z,376.00
2019-01-14T07:22:01.120Z,392.00
2019-01-14T07:23:01.087Z,400.00
2019-01-14T07:24:01.083Z,420.00
2019-01-14T07:25:01.088Z,444.00
2019-01-14T07:26:01.072Z,464.00
2019-01-14T07:27:01.043Z,472.00
2019-01-14T07:28:01.119Z,468.00
2019-01-14T07:29:01.017Z,484.00
2019-01-14T07:30:01.013Z,508.00
2019-01-14T07:31:01.000Z,540.00
2019-01-14T07:32:00.991Z,544.00
2019-01-14T07:33:00.977Z,552.00
2019-01-14T07:34:01.009Z,568.00
2019-01-14T07:35:02.206Z,572.00
2019-01-14T07:36:00.948Z,588.00
2019-01-14T07:37:00.934Z,592.00
2019-01-14T07:38:06.591Z,604.00
2019-01-14T07:39:01.955Z,616.00
2019-01-14T07:40:00.908Z,616.00
2019-01-14T07:41:00.895Z,608.00
2019-01-14T07:42:00.889Z,608.00
2019-01-14T07:43:00.869Z,600.00
2019-01-14T07:44:00.862Z,620.00
2019-01-14T07:45:00.891Z,624.00
2019-01-14T07:46:00.837Z,620.00
2019-01-14T07:47:13.105Z,616.00
2019-01-14T07:48:00.819Z,624.00
2019-01-14T07:49:00.804Z,636.00
2019-01-14T07:50:00.794Z,652.00
2019-01-14T07:51:00.965Z,680.00
2019-01-14T07:52:00.779Z,700.00
2019-01-14T07:53:00.764Z,704.00
2019-01-14T07:54:00.767Z,716.00
2019-01-14T07:55:00.742Z,716.00
2019-01-14T07:56:00.738Z,736.00
2019-01-14T07:57:00.988Z,764.00
2019-01-14T07:58:00.706Z,792.00
2019-01-14T07:59:00.696Z,792.00
2019-01-14T08:00:00.690Z,816.00
2019-01-14T08:01:00.680Z,828.00
2019-01-14T08:02:00.679Z,848.00
2019-01-14T08:03:00.694Z,872.00
2019-01-14T08:04:00.653Z,888.00
2019-01-14T08:05:00.635Z,916.00
2019-01-14T08:06:00.621Z,968.00
2019-01-14T08:07:00.612Z,996.00
2019-01-14T08:08:00.609Z,1028.00
2019-01-14T08:09:00.648Z,1060.00
2019-01-14T08:10:00.589Z,1072.00
2019-01-14T08:11:00.602Z,1092.00
2019-01-14T08:12:00.556Z,1100.00
2019-01-14T08:13:00.546Z,1108.00
2019-01-14T08:14:00.536Z,1120.00
2019-01-14T08:15:00.573Z,1140.00
2019-01-14T08:16:00.515Z,1180.00
2019-01-14T08:17:00.520Z,1216.00
2019-01-14T08:18:11.158Z,1256.00
2019-01-14T08:19:00.487Z,1292.00
2019-01-14T08:20:00.489Z,1304.00
2019-01-14T08:21:00.500Z,1312.00
2019-01-14T08:22:00.466Z,1312.00
2019-01-14T08:23:00.445Z,1348.00
2019-01-14T08:24:00.435Z,1404.00
2019-01-14T08:25:00.419Z,1480.00
2019-01-14T08:26:00.417Z,1528.00
2019-01-14T08:27:00.432Z,1556.00
2019-01-14T08:28:00.404Z,1584.00
2019-01-14T08:29:00.575Z,1628.00
2019-01-14T08:30:00.373Z,1664.00
2019-01-14T08:31:00.354Z,1700.00
2019-01-14T08:32:00.367Z,1760.00
2019-01-14T08:33:00.374Z,1824.00
2019-01-14T08:34:00.360Z,1876.00
2019-01-14T08:35:00.311Z,1908.00
2019-01-14T08:36:00.321Z,1928.00
2019-01-14T08:37:00.842Z,1976.00
2019-01-14T08:38:00.282Z,2068.00
2019-01-14T08:39:00.314Z,2068.00
2019-01-14T08:40:00.257Z,2096.00
2019-01-14T08:41:00.248Z,2092.00
2019-01-14T08:42:00.238Z,2120.00
2019-01-14T08:43:00.233Z,2156.00
2019-01-14T08:44:00.214Z,2204.00
2019-01-14T08:45:00.363Z,2224.00
2019-01-14T08:46:00.197Z,2196.00
2019-01-14T08:47:00.186Z,2160.00
2019-01-14T08:48:00.184Z,2132.00
2019-01-14T08:49:10.146Z,2136.00
2019-01-14T08:50:00.285Z,2148.00
2019-01-14T08:51:00.160Z,2116.00
2019-01-14T08:52:00.132Z,2132.00
2019-01-14T08:53:00.122Z,2084.00
2019-01-14T08:54:00.116Z,2060.00
2019-01-14T08:55:00.230Z,2032.00
2019-01-14T08:56:00.103Z,2080.00
2019-01-14T08:57:00.125Z,2080.00
2019-01-14T08:58:00.087Z,2064.00
2019-01-14T08:59:00.063Z,2052.00
2019-01-14T09:00:00.056Z,2108.00
2019-01-14T09:01:00.033Z,2144.00
2019-01-14T09:02:00.027Z,2200.00
2019-01-14T09:03:00.090Z,2272.00
2019-01-14T09:04:00.035Z,2308.00
2019-01-14T09:04:59.998Z,2300.00
2019-01-14T09:05:59.986Z,2272.00
2019-01-14T09:06:59.977Z,2292.00
2019-01-14T09:07:59.989Z,2332.00
2019-01-14T09:08:59.969Z,2340.00
2019-01-14T09:09:59.944Z,2460.00
2019-01-14T09:10:59.933Z,2428.00
2019-01-14T09:11:59.926Z,2308.00
2019-01-14T09:12:59.918Z,2236.00
2019-01-14T09:13:59.904Z,2196.00
2019-01-14T09:14:59.933Z,2204.00
2019-01-14T09:15:59.915Z,2272.00
2019-01-14T09:16:59.869Z,2248.00
2019-01-14T09:18:02.957Z,2252.00
2019-01-14T09:18:59.846Z,2216.00
2019-01-14T09:20:12.396Z,2188.00
2019-01-14T09:20:59.828Z,2192.00
2019-01-14T09:21:59.827Z,2204.00
2019-01-14T09:22:59.805Z,2276.00
2019-01-14T09:23:59.800Z,2352.00
2019-01-14T09:24:59.789Z,2448.00
2019-01-14T09:25:59.815Z,2536.00
2019-01-14T09:26:59.783Z,2556.00
2019-01-14T09:27:59.753Z,2564.00
2019-01-14T09:28:59.745Z,2588.00
2019-01-14T09:29:59.728Z,2608.00
2019-01-14T09:31:00.350Z,2728.00
2019-01-14T09:32:00.039Z,2744.00
2019-01-14T09:32:59.701Z,2784.00
2019-01-14T09:33:59.704Z,2896.00
2019-01-14T09:34:59.674Z,2932.00
2019-01-14T09:35:59.671Z,3032.00
2019-01-14T09:36:59.656Z,3112.00
2019-01-14T09:37:59.777Z,3272.00
2019-01-14T09:38:59.653Z,3412.00
2019-01-14T09:39:59.625Z,3540.00
2019-01-14T09:41:00.347Z,3796.00
2019-01-14T09:41:59.601Z,4056.00
2019-01-14T09:42:59.610Z,4216.00
2019-01-14T09:43:59.749Z,4412.00
2019-01-14T09:44:59.571Z,4380.00
2019-01-14T09:45:59.571Z,4512.00
2019-01-14T09:46:59.548Z,4728.00
2019-01-14T09:47:59.602Z,4816.00
2019-01-14T09:48:59.533Z,4968.00
2019-01-14T09:49:59.691Z,4900.00
2019-01-14T09:51:10.838Z,4604.00
2019-01-14T09:51:59.492Z,4476.00
2019-01-14T09:52:59.485Z,4456.00
2019-01-14T09:53:59.481Z,4536.00
2019-01-14T09:54:59.467Z,4448.00
2019-01-14T09:55:59.477Z,4368.00
2019-01-14T09:56:59.508Z,4240.00
2019-01-14T09:57:59.447Z,4104.00
2019-01-14T09:58:59.423Z,4144.00
2019-01-14T09:59:59.410Z,4164.00
2019-01-14T10:00:59.409Z,4192.00
2019-01-14T10:01:59.576Z,4212.00
2019-01-14T10:02:59.376Z,4364.00
2019-01-14T10:03:59.429Z,4372.00
2019-01-14T10:04:59.368Z,4396.00
2019-01-14T10:05:59.352Z,4444.00
2019-01-14T10:06:59.359Z,4720.00
2019-01-14T10:07:59.373Z,4928.00
2019-01-14T10:08:59.320Z,5000.00
2019-01-14T10:09:59.313Z,5084.00
2019-01-14T10:10:59.299Z,5356.00
2019-01-14T10:11:59.303Z,5504.00
2019-01-14T10:12:59.274Z,5600.00
2019-01-14T10:13:59.302Z,5648.00
2019-01-14T10:14:59.257Z,5824.00
2019-01-14T10:15:59.242Z,5860.00
2019-01-14T10:16:59.232Z,5972.00
2019-01-14T10:17:59.232Z,5828.00
2019-01-14T10:18:59.204Z,5700.00
2019-01-14T10:19:59.375Z,5756.00
2019-01-14T10:20:59.192Z,5672.00
2019-01-14T10:22:10.063Z,5388.00
2019-01-14T10:22:59.164Z,4884.00
2019-01-14T10:23:59.164Z,4404.00
2019-01-14T10:24:59.152Z,4068.00
2019-01-14T10:25:59.168Z,3796.00
2019-01-14T10:26:59.124Z,3580.00
2019-01-14T10:27:59.126Z,3592.00
2019-01-14T10:28:59.097Z,3704.00
2019-01-14T10:29:59.096Z,3848.00
2019-01-14T10:30:59.091Z,3808.00
2019-01-14T10:31:59.108Z,3780.00
2019-01-14T10:32:59.058Z,3756.00
2019-01-14T10:33:59.050Z,3740.00
2019-01-14T10:34:59.043Z,3804.00
2019-01-14T10:35:59.031Z,3740.00
2019-01-14T10:36:59.019Z,3832.00
2019-01-14T10:37:59.055Z,3848.00
2019-01-14T10:38:58.994Z,3808.00
2019-01-14T10:39:58.991Z,3864.00
2019-01-14T10:40:58.978Z,3904.00
2019-01-14T10:41:58.968Z,4020.00
2019-01-14T10:42:58.958Z,3856.00
2019-01-14T10:43:58.979Z,3736.00
2019-01-14T10:44:58.928Z,3616.00
2019-01-14T10:45:58.921Z,3612.00
2019-01-14T10:46:58.909Z,3568.00
2019-01-14T10:47:58.947Z,3580.00
2019-01-14T10:48:58.951Z,3580.00
2019-01-14T10:49:58.939Z,3584.00
2019-01-14T10:50:58.869Z,3480.00
2019-01-14T10:51:58.894Z,3344.00
2019-01-14T10:53:12.453Z,3192.00
2019-01-14T10:54:05.821Z,3120.00
2019-01-14T10:54:58.822Z,3084.00
2019-01-14T10:55:58.855Z,3028.00
2019-01-14T10:57:07.314Z,2964.00
2019-01-14T10:57:58.791Z,2888.00
2019-01-14T10:58:58.776Z,2776.00
2019-01-14T10:59:58.787Z,2748.00
2019-01-14T11:00:58.789Z,2636.00
2019-01-14T11:01:58.927Z,2476.00
2019-01-14T11:02:58.766Z,2332.00
2019-01-14T11:03:58.837Z,2204.00
2019-01-14T11:04:58.728Z,2116.00
2019-01-14T11:05:58.732Z,2028.00
2019-01-14T11:06:58.762Z,1964.00
2019-01-14T11:07:58.801Z,1900.00
2019-01-14T11:09:05.699Z,1864.00
2019-01-14T11:09:59.664Z,1852.00
2019-01-14T11:10:58.651Z,1920.00
2019-01-14T11:11:58.645Z,1988.00
2019-01-14T11:12:58.646Z,2008.00
2019-01-14T11:13:58.651Z,1996.00
2019-01-14T11:15:02.789Z,1984.00
2019-01-14T11:15:58.661Z,1960.00
2019-01-14T11:16:58.588Z,1972.00
2019-01-14T11:17:58.580Z,1980.00
2019-01-14T11:18:58.566Z,1968.00
2019-01-14T11:19:58.619Z,1976.00
2019-01-14T11:20:58.544Z,2000.00
2019-01-14T11:21:58.530Z,2032.00
2019-01-14T11:22:58.525Z,2104.00
2019-01-14T11:23:58.512Z,2148.00
2019-01-14T11:24:58.540Z,2236.00
2019-01-14T11:25:58.508Z,2276.00
2019-01-14T11:26:58.483Z,2272.00
2019-01-14T11:28:08.946Z,2252.00
2019-01-14T11:28:58.464Z,2240.00
2019-01-14T11:29:58.442Z,2256.00
2019-01-14T11:30:58.438Z,2188.00
2019-01-14T11:31:58.461Z,2132.00
2019-01-14T11:32:58.423Z,2092.00
2019-01-14T11:33:58.412Z,2060.00
2019-01-14T11:34:58.400Z,1992.00
2019-01-14T11:35:58.396Z,1980.00
2019-01-14T11:36:58.373Z,1984.00
2019-01-14T11:37:58.374Z,1944.00
2019-01-14T11:39:04.739Z,1916.00
2019-01-14T11:39:59.363Z,1876.00
2019-01-14T11:40:58.324Z,1872.00
2019-01-14T11:41:58.314Z,1828.00
2019-01-14T11:42:58.307Z,1796.00
2019-01-14T11:43:58.343Z,1776.00
2019-01-14T11:44:58.289Z,1776.00
2019-01-14T11:45:58.277Z,1756.00
2019-01-14T11:46:58.260Z,1768.00
2019-01-14T11:47:58.255Z,1808.00
2019-01-14T11:48:58.251Z,1776.00
2019-01-14T11:49:58.278Z,1824.00
2019-01-14T11:50:58.226Z,1828.00
2019-01-14T11:51:58.218Z,1852.00
2019-01-14T11:52:58.207Z,1896.00
2019-01-14T11:53:58.188Z,1928.00
2019-01-14T11:54:58.176Z,1988.00
2019-01-14T11:55:58.346Z,2020.00
2019-01-14T11:56:58.153Z,2024.00
2019-01-14T11:57:58.146Z,2040.00
2019-01-14T11:59:08.286Z,2052.00
2019-01-14T11:59:58.129Z,2052.00
2019-01-14T12:00:58.111Z,2040.00
2019-01-14T12:01:58.142Z,2020.00
2019-01-14T12:02:58.097Z,1972.00
2019-01-14T12:03:58.095Z,1928.00
2019-01-14T12:04:58.069Z,1864.00
2019-01-14T12:05:58.059Z,1832.00
2019-01-14T12:06:58.048Z,1784.00
2019-01-14T12:07:58.092Z,1728.00
2019-01-14T12:08:58.051Z,1676.00
2019-01-14T12:09:58.016Z,1628.00
2019-01-14T12:10:58.008Z,1536.00
2019-01-14T12:11:58.008Z,1500.00
2019-01-14T12:12:57.987Z,1452.00
2019-01-14T12:13:57.997Z,1384.00
2019-01-14T12:14:57.963Z,1328.00
2019-01-14T12:15:57.953Z,1240.00
2019-01-14T12:16:57.942Z,1176.00
2019-01-14T12:17:57.930Z,1128.00
2019-01-14T12:18:57.918Z,1096.00
2019-01-14T12:19:57.948Z,1040.00
2019-01-14T12:20:57.909Z,1012.00
2019-01-14T12:21:57.888Z,976.00
2019-01-14T12:22:57.882Z,944.00
2019-01-14T12:23:57.871Z,924.00
2019-01-14T12:24:57.903Z,900.00
2019-01-14T12:25:57.884Z,884.00
2019-01-14T12:26:57.837Z,880.00
2019-01-14T12:27:57.823Z,868.00
2019-01-14T12:28:57.812Z,848.00
2019-01-14T12:30:10.121Z,816.00
2019-01-14T12:30:57.791Z,816.00
2019-01-14T12:31:57.884Z,812.00
2019-01-14T12:32:57.774Z,812.00